Time;durP1;ratioP1;P1;durP2;ratioP2;P2;SDS_P1;SDS_P2;PMS_P1;PMS_P2;Temp;Humidity;BMP_temperature;BMP_pressure;BME280_temperature;BME280_humidity;BME280_pressure;Samples;Min_cycle;Max_cycle;Signal;HPM_P1;HPM_P2
2022/06/13 00:00:01;;;;;;;1.88;1.75;;;;;;;;;;5082996;28;20630;-75
2022/06/13 00:02:28;;;;;;;2.33;1.92;;;;;;;;;;5084880;28;20447;-75
2022/06/13 00:04:56;;;;;;;5.05;1.90;;;;;;;;;;5080580;28;20295;-73
2022/06/13 00:07:23;;;;;;;1.67;1.58;;;;;;;;;;5084816;28;20228;-73
2022/06/13 00:09:50;;;;;;;2.75;2.45;;;;;;;;;;5085608;28;20240;-73
2022/06/13 00:12:18;;;;;;;1.88;1.60;;;;;;;;;;5068207;28;20289;-75
2022/06/13 00:14:45;;;;;;;1.65;1.52;;;;;;;;;;5080828;28;20247;-73
2022/06/13 00:17:12;;;;;;;5.28;3.15;;;;;;;;;;5069834;28;20661;-75
2022/06/13 00:19:39;;;;;;;2.27;1.40;;;;;;;;;;5087697;28;20201;-72
2022/06/13 00:22:07;;;;;;;1.75;1.60;;;;;;;;;;5082443;28;20490;-75
2022/06/13 00:24:34;;;;;;;3.13;2.27;;;;;;;;;;5077425;28;20233;-72
2022/06/13 00:27:01;;;;;;;2.28;1.50;;;;;;;;;;5082119;28;20236;-73
2022/06/13 00:29:29;;;;;;;1.90;1.42;;;;;;;;;;5084710;28;20233;-73
2022/06/13 00:31:56;;;;;;;1.50;1.40;;;;;;;;;;5079236;28;20602;-72
2022/06/13 00:34:23;;;;;;;2.40;1.38;;;;;;;;;;5080911;28;20549;-74
2022/06/13 00:36:50;;;;;;;1.25;1.20;;;;;;;;;;5081913;28;20259;-73
2022/06/13 00:39:18;;;;;;;3.97;2.17;;;;;;;;;;5076598;28;20225;-72
2022/06/13 00:41:46;;;;;;;4.60;3.47;;;;;;;;;;5082459;28;20251;-73
2022/06/13 00:44:17;;;;;;;5.93;2.20;;;;;;;;;;5085473;28;20197;-73
2022/06/13 00:46:45;;;;;;;3.92;2.22;;;;;;;;;;5086803;28;20205;-74
2022/06/13 00:49:14;;;;;;;1.60;1.50;;;;;;;;;;5084817;28;20211;-74
2022/06/13 00:51:47;;;;;;;3.20;1.60;;;;;;;;;;5080999;28;20209;-73
2022/06/13 00:54:16;;;;;;;2.10;1.90;;;;;;;;;;5079293;28;20343;-73
2022/06/13 00:56:44;;;;;;;1.60;1.50;;;;;;;;;;5083726;28;20684;-73
2022/06/13 00:59:16;;;;;;;1.60;1.50;;;;;;;;;;5084914;28;20599;-74
2022/06/13 01:01:44;;;;;;;3.28;1.92;;;;;;;;;;5083002;28;20201;-71
2022/06/13 01:04:11;;;;;;;1.83;1.73;;;;;;;;;;5081530;28;20292;-73
2022/06/13 01:06:41;;;;;;;2.60;1.70;;;;;;;;;;5061653;28;20216;-73
2022/06/13 01:09:10;;;;;;;2.67;2.45;;;;;;;;;;5061002;28;20681;-72
2022/06/13 01:11:46;;;;;;;2.38;2.00;;;;;;;;;;5082798;28;20205;-74
2022/06/13 01:14:22;;;;;;;3.00;2.80;;;;;;;;;;5083848;28;20196;-72
2022/06/13 01:17:08;;;;;;;2.27;2.07;;;;;;;;;;5082568;28;20702;-75
2022/06/13 01:19:54;;;;;;;2.40;2.20;;;;;;;;;;5070224;28;20205;-75
2022/06/13 01:22:39;;;;;;;2.20;2.00;;;;;;;;;;5087841;28;20714;-73
2022/06/13 01:25:06;;;;;;;6.13;4.37;;;;;;;;;;5082806;28;20200;-75
2022/06/13 01:27:53;;;;;;;4.27;2.10;;;;;;;;;;5087446;28;20232;-73
2022/06/13 01:30:35;;;;;;;2.23;2.10;;;;;;;;;;5081087;28;20208;-73
2022/06/13 01:33:24;;;;;;;2.40;2.20;;;;;;;;;;5081048;28;20221;-73
2022/06/13 01:36:02;;;;;;;4.23;2.20;;;;;;;;;;5081148;28;20232;-74
2022/06/13 01:38:29;;;;;;;3.03;2.60;;;;;;;;;;5084578;28;20561;-76
2022/06/13 01:41:15;;;;;;;3.67;2.60;;;;;;;;;;5088010;28;20208;-71
2022/06/13 01:43:52;;;;;;;2.60;2.40;;;;;;;;;;5090085;28;20219;-75
2022/06/13 01:46:31;;;;;;;2.38;2.17;;;;;;;;;;5085190;28;20631;-75
2022/06/13 01:48:59;;;;;;;2.80;2.60;;;;;;;;;;5070982;28;20209;-74
2022/06/13 01:51:29;;;;;;;3.05;2.80;;;;;;;;;;5085708;28;20223;-74
2022/06/13 01:54:22;;;;;;;2.50;2.30;;;;;;;;;;5070576;28;20201;-74
2022/06/13 01:56:55;;;;;;;3.05;2.38;;;;;;;;;;5068111;28;20228;-74
2022/06/13 01:59:27;;;;;;;3.17;2.20;;;;;;;;;;5078797;28;20830;-72
2022/06/13 02:02:04;;;;;;;2.50;2.30;;;;;;;;;;5087434;28;20250;-75
2022/06/13 02:04:36;;;;;;;3.50;2.60;;;;;;;;;;5087522;28;20604;-74
2022/06/13 02:07:16;;;;;;;3.17;2.87;;;;;;;;;;5077952;28;20211;-74
2022/06/13 02:10:10;;;;;;;4.88;2.88;;;;;;;;;;5082144;28;20196;-74
2022/06/13 02:12:39;;;;;;;3.43;3.10;;;;;;;;;;5085138;28;20789;-75
2022/06/13 02:15:08;;;;;;;3.03;2.73;;;;;;;;;;5086300;28;20205;-74
2022/06/13 02:17:42;;;;;;;3.95;2.90;;;;;;;;;;5086194;28;20917;-74
2022/06/13 02:20:13;;;;;;;3.17;2.85;;;;;;;;;;5081570;28;20201;-74
2022/06/13 02:22:46;;;;;;;4.07;3.13;;;;;;;;;;5079251;28;20279;-74
2022/06/13 02:25:16;;;;;;;3.22;2.92;;;;;;;;;;5086680;28;20716;-73
2022/06/13 02:27:46;;;;;;;2.60;2.50;;;;;;;;;;5086277;28;20630;-72
2022/06/13 02:30:16;;;;;;;3.00;2.40;;;;;;;;;;5082021;28;20628;-74
2022/06/13 02:32:47;;;;;;;2.70;2.50;;;;;;;;;;5084402;28;20261;-72
2022/06/13 02:35:17;;;;;;;2.85;2.65;;;;;;;;;;5076937;28;20213;-73
2022/06/13 02:37:50;;;;;;;3.07;2.60;;;;;;;;;;5082616;28;20294;-74
2022/06/13 02:40:21;;;;;;;3.63;2.63;;;;;;;;;;5086433;28;20200;-72
2022/06/13 02:42:56;;;;;;;3.10;2.67;;;;;;;;;;5078405;28;20636;-75
2022/06/13 02:45:26;;;;;;;2.90;2.58;;;;;;;;;;5087014;28;20200;-73
2022/06/13 02:47:53;;;;;;;5.00;3.40;;;;;;;;;;5088880;28;20859;-74
2022/06/13 02:50:25;;;;;;;3.17;2.88;;;;;;;;;;5084547;28;20201;-73
2022/06/13 02:52:58;;;;;;;2.92;2.40;;;;;;;;;;5086081;28;20225;-73
2022/06/13 02:55:25;;;;;;;2.80;2.60;;;;;;;;;;5082407;28;20254;-74
2022/06/13 02:57:53;;;;;;;3.00;2.77;;;;;;;;;;5084160;28;20220;-74
2022/06/13 03:00:23;;;;;;;3.43;2.70;;;;;;;;;;5079232;28;20207;-73
2022/06/13 03:02:54;;;;;;;2.97;2.60;;;;;;;;;;5082135;28;20374;-74
2022/06/13 03:05:37;;;;;;;3.77;3.40;;;;;;;;;;5081926;28;20250;-74
2022/06/13 03:08:17;;;;;;;4.27;3.83;;;;;;;;;;5075234;28;20683;-73
2022/06/13 03:10:50;;;;;;;3.63;3.33;;;;;;;;;;5075975;28;20201;-73
2022/06/13 03:13:24;;;;;;;3.60;3.30;;;;;;;;;;5081458;28;20702;-74
2022/06/13 03:15:54;;;;;;;3.87;3.03;;;;;;;;;;5084145;28;20209;-74
2022/06/13 03:18:29;;;;;;;3.27;2.97;;;;;;;;;;5079505;28;20581;-74
2022/06/13 03:21:17;;;;;;;4.47;2.90;;;;;;;;;;5078317;28;20610;-72
2022/06/13 03:23:53;;;;;;;4.63;3.17;;;;;;;;;;5077058;28;20990;-75
2022/06/13 03:26:21;;;;;;;3.50;2.70;;;;;;;;;;5078307;28;20739;-75
2022/06/13 03:28:49;;;;;;;4.00;2.80;;;;;;;;;;5076418;28;20298;-74
2022/06/13 03:31:19;;;;;;;3.37;3.07;;;;;;;;;;5077467;28;20212;-75
2022/06/13 03:33:50;;;;;;;3.20;2.85;;;;;;;;;;5077976;28;20224;-73
2022/06/13 03:36:27;;;;;;;2.70;2.50;;;;;;;;;;5086914;28;20889;-72
2022/06/13 03:39:15;;;;;;;2.93;2.73;;;;;;;;;;5082983;28;20655;-74
2022/06/13 03:41:48;;;;;;;3.40;3.10;;;;;;;;;;5065550;28;20254;-73
2022/06/13 03:44:18;;;;;;;3.60;3.13;;;;;;;;;;5076997;28;20229;-73
2022/06/13 03:46:50;;;;;;;3.93;3.53;;;;;;;;;;5087598;28;20711;-72
2022/06/13 03:49:20;;;;;;;4.20;3.77;;;;;;;;;;5085701;28;20627;-75
2022/06/13 03:51:49;;;;;;;6.10;3.90;;;;;;;;;;5057794;28;20245;-73
2022/06/13 03:54:22;;;;;;;4.53;4.10;;;;;;;;;;5082449;28;20698;-74
2022/06/13 03:56:55;;;;;;;5.90;4.67;;;;;;;;;;5080347;28;20289;-75
2022/06/13 03:59:35;;;;;;;4.70;4.20;;;;;;;;;;5083402;28;20197;-72
2022/06/13 04:02:05;;;;;;;4.33;3.93;;;;;;;;;;5084402;28;20305;-72
2022/06/13 04:04:44;;;;;;;7.20;4.70;;;;;;;;;;5087352;28;20243;-74
2022/06/13 04:07:11;;;;;;;5.50;4.50;;;;;;;;;;5087024;28;20304;-75
2022/06/13 04:09:41;;;;;;;6.03;4.80;;;;;;;;;;5088170;28;20621;-73
2022/06/13 04:12:16;;;;;;;5.07;4.50;;;;;;;;;;5078131;28;20228;-73
2022/06/13 04:15:02;;;;;;;4.43;4.03;;;;;;;;;;5084290;28;20725;-73
2022/06/13 04:17:41;;;;;;;5.17;4.67;;;;;;;;;;5085903;28;20275;-73
2022/06/13 04:20:14;;;;;;;3.80;3.40;;;;;;;;;;5089611;28;20727;-74
2022/06/13 04:22:48;;;;;;;4.70;4.30;;;;;;;;;;5076481;28;20221;-74
2022/06/13 04:25:30;;;;;;;5.30;4.43;;;;;;;;;;5082486;28;20246;-73
2022/06/13 04:28:04;;;;;;;7.10;4.63;;;;;;;;;;5083244;28;20232;-71
2022/06/13 04:30:32;;;;;;;6.60;4.90;;;;;;;;;;5083422;28;20644;-72
2022/06/13 04:33:02;;;;;;;5.00;4.50;;;;;;;;;;5082076;28;20225;-72
2022/06/13 04:35:30;;;;;;;6.33;3.87;;;;;;;;;;5083967;28;20247;-73
2022/06/13 04:38:00;;;;;;;4.33;3.83;;;;;;;;;;5085232;28;20236;-73
2022/06/13 04:40:28;;;;;;;4.67;4.17;;;;;;;;;;5080813;28;20262;-74
2022/06/13 04:42:56;;;;;;;4.00;3.40;;;;;;;;;;5085720;28;20271;-74
2022/06/13 04:45:28;;;;;;;9.30;4.20;;;;;;;;;;5085023;28;20267;-74
2022/06/13 04:47:56;;;;;;;5.07;3.60;;;;;;;;;;5084439;28;20232;-74
2022/06/13 04:50:30;;;;;;;4.47;3.80;;;;;;;;;;5088595;28;20201;-73
2022/06/13 04:52:57;;;;;;;4.07;3.67;;;;;;;;;;5088426;28;20259;-73
2022/06/13 04:55:29;;;;;;;6.40;4.33;;;;;;;;;;5084096;28;20263;-74
2022/06/13 04:57:56;;;;;;;8.13;3.60;;;;;;;;;;5087400;28;20225;-73
2022/06/13 05:00:23;;;;;;;3.93;3.40;;;;;;;;;;5086524;28;20651;-72
2022/06/13 05:02:52;;;;;;;4.97;3.70;;;;;;;;;;5087316;28;20248;-73
2022/06/13 05:05:40;;;;;;;6.17;3.57;;;;;;;;;;5086460;28;20197;-75
2022/06/13 05:08:27;;;;;;;10.17;5.30;;;;;;;;;;5085100;28;20651;-74
2022/06/13 05:10:56;;;;;;;5.87;3.87;;;;;;;;;;5083495;28;20637;-74
2022/06/13 05:13:24;;;;;;;7.23;4.50;;;;;;;;;;5083855;28;20736;-73
2022/06/13 05:15:57;;;;;;;5.00;3.70;;;;;;;;;;5081878;28;20262;-74
2022/06/13 05:18:24;;;;;;;6.20;4.07;;;;;;;;;;5088976;28;20348;-73
2022/06/13 05:20:51;;;;;;;4.97;3.93;;;;;;;;;;5087617;28;20353;-74
2022/06/13 05:23:37;;;;;;;5.80;4.00;;;;;;;;;;5092150;28;20265;-74
2022/06/13 05:26:05;;;;;;;5.25;4.00;;;;;;;;;;5084517;28;20650;-74
2022/06/13 05:28:34;;;;;;;4.90;3.17;;;;;;;;;;5086951;28;20231;-74
2022/06/13 05:31:06;;;;;;;5.05;3.03;;;;;;;;;;5085691;28;20288;-75
2022/06/13 05:33:35;;;;;;;4.90;3.38;;;;;;;;;;5089238;28;20220;-75
2022/06/13 05:36:04;;;;;;;3.42;2.78;;;;;;;;;;5085472;28;20213;-74
2022/06/13 05:38:34;;;;;;;5.05;3.10;;;;;;;;;;5082223;28;20241;-74
2022/06/13 05:41:02;;;;;;;3.50;2.55;;;;;;;;;;5086004;28;20258;-74
2022/06/13 05:43:29;;;;;;;3.58;2.53;;;;;;;;;;5088517;28;20236;-73
2022/06/13 05:45:56;;;;;;;4.10;2.58;;;;;;;;;;5085062;28;20292;-73
2022/06/13 05:48:24;;;;;;;4.95;2.40;;;;;;;;;;5089033;28;20553;-75
2022/06/13 05:50:51;;;;;;;2.83;2.15;;;;;;;;;;5087382;28;20273;-73
2022/06/13 05:53:22;;;;;;;3.50;2.00;;;;;;;;;;5081032;28;20216;-75
2022/06/13 05:55:50;;;;;;;3.13;2.10;;;;;;;;;;5064902;28;20373;-73
2022/06/13 05:58:18;;;;;;;4.57;3.33;;;;;;;;;;5087834;28;20455;-72
2022/06/13 06:00:52;;;;;;;5.47;3.42;;;;;;;;;;5081334;28;20201;-76
2022/06/13 06:03:19;;;;;;;5.07;3.25;;;;;;;;;;5084835;28;20221;-75
2022/06/13 06:05:47;;;;;;;4.63;2.30;;;;;;;;;;5087062;28;20197;-73
2022/06/13 06:08:23;;;;;;;3.55;2.78;;;;;;;;;;5075895;28;20557;-75
2022/06/13 06:10:51;;;;;;;2.60;2.22;;;;;;;;;;5081937;28;20866;-74
2022/06/13 06:13:19;;;;;;;3.95;2.20;;;;;;;;;;5081803;28;20312;-74
2022/06/13 06:15:47;;;;;;;3.20;2.33;;;;;;;;;;5083598;28;20201;-75
2022/06/13 06:18:15;;;;;;;5.38;2.40;;;;;;;;;;5088845;28;20232;-77
2022/06/13 06:20:43;;;;;;;3.38;3.05;;;;;;;;;;5089883;28;20254;-74
2022/06/13 06:23:10;;;;;;;3.75;3.10;;;;;;;;;;5069443;28;20221;-75
2022/06/13 06:25:37;;;;;;;3.97;3.20;;;;;;;;;;5087056;28;20200;-76
2022/06/13 06:28:05;;;;;;;4.68;3.20;;;;;;;;;;5105149;28;20249;-75
2022/06/13 06:30:33;;;;;;;6.40;3.40;;;;;;;;;;5093470;28;20206;-75
2022/06/13 06:33:01;;;;;;;10.63;4.97;;;;;;;;;;5054276;28;20228;-73
2022/06/13 06:35:30;;;;;;;8.00;4.13;;;;;;;;;;5078544;28;20240;-76
2022/06/13 06:38:03;;;;;;;10.83;4.80;;;;;;;;;;5069384;28;20220;-76
2022/06/13 06:40:30;;;;;;;8.93;3.80;;;;;;;;;;5087301;28;20189;-75
2022/06/13 06:42:58;;;;;;;9.53;4.37;;;;;;;;;;5087251;28;20223;-74
2022/06/13 06:45:26;;;;;;;7.93;4.10;;;;;;;;;;5082317;28;20201;-76
2022/06/13 06:47:54;;;;;;;7.17;4.13;;;;;;;;;;5070020;28;20269;-76
2022/06/13 06:50:25;;;;;;;7.87;4.20;;;;;;;;;;5101445;28;20197;-75
2022/06/13 06:52:53;;;;;;;8.47;4.77;;;;;;;;;;5079926;28;20227;-76
2022/06/13 07:00:55;;;;;;;6.57;4.70;;;;;;;;;;5090191;28;20204;-75
2022/06/13 07:03:23;;;;;;;10.67;4.13;;;;;;;;;;5070082;28;20502;-76
2022/06/13 07:05:51;;;;;;;7.20;4.30;;;;;;;;;;5088687;28;20197;-74
2022/06/13 07:08:19;;;;;;;8.30;4.30;;;;;;;;;;5088312;28;20201;-75
2022/06/13 07:10:49;;;;;;;9.10;4.60;;;;;;;;;;5088295;28;20301;-74
2022/06/13 07:13:18;;;;;;;10.13;4.13;;;;;;;;;;5070647;28;20654;-74
2022/06/13 07:15:48;;;;;;;6.77;4.40;;;;;;;;;;5088720;28;20262;-77
2022/06/13 07:18:16;;;;;;;7.83;4.30;;;;;;;;;;5088534;28;20229;-76
2022/06/13 07:20:44;;;;;;;7.23;4.33;;;;;;;;;;5072683;28;20209;-76
2022/06/13 07:23:12;;;;;;;8.93;4.17;;;;;;;;;;5067981;28;20247;-75
2022/06/13 07:25:40;;;;;;;8.57;4.70;;;;;;;;;;5068392;28;20247;-77
2022/06/13 07:28:07;;;;;;;9.47;4.73;;;;;;;;;;5068498;28;20679;-75
2022/06/13 07:30:34;;;;;;;8.83;4.17;;;;;;;;;;5069030;28;20204;-75
2022/06/13 07:33:02;;;;;;;10.33;4.00;;;;;;;;;;5061551;28;20278;-75
2022/06/13 07:35:29;;;;;;;9.60;3.40;;;;;;;;;;5088532;28;20208;-73
2022/06/13 07:40:47;;;;;;;8.90;4.37;;;;;;;;;;5079855;28;20208;-75
2022/06/13 07:43:34;;;;;;;11.80;5.20;;;;;;;;;;5076407;28;20224;-75
2022/06/13 07:46:02;;;;;;;8.43;4.40;;;;;;;;;;5052490;28;22630;-77
2022/06/13 07:48:31;;;;;;;9.43;4.00;;;;;;;;;;5061082;28;20201;-76
2022/06/13 07:50:58;;;;;;;8.07;4.17;;;;;;;;;;5087564;28;20254;-77
2022/06/13 07:53:25;;;;;;;11.27;3.90;;;;;;;;;;5082241;28;20699;-77
2022/06/13 07:56:14;;;;;;;7.63;3.67;;;;;;;;;;5068685;28;20575;-75
2022/06/13 07:58:42;;;;;;;5.90;3.70;;;;;;;;;;5068097;28;20235;-77
2022/06/13 08:01:10;;;;;;;8.03;3.60;;;;;;;;;;5068467;28;20205;-76
2022/06/13 08:03:38;;;;;;;4.40;3.70;;;;;;;;;;5073065;28;20303;-77
2022/06/13 08:06:06;;;;;;;6.33;3.70;;;;;;;;;;5088280;28;20197;-77
2022/06/13 08:08:39;;;;;;;9.50;3.50;;;;;;;;;;5087765;28;20654;-76
2022/06/13 08:11:07;;;;;;;8.33;4.03;;;;;;;;;;5077935;28;20244;-76
2022/06/13 08:13:36;;;;;;;10.50;4.77;;;;;;;;;;5067401;28;20229;-75
2022/06/13 08:16:04;;;;;;;8.67;3.90;;;;;;;;;;5067753;28;20209;-74
2022/06/13 08:18:31;;;;;;;8.23;4.60;;;;;;;;;;5067601;28;20229;-76
2022/06/13 08:20:59;;;;;;;10.13;4.10;;;;;;;;;;5050904;28;20205;-76
2022/06/13 08:23:26;;;;;;;7.30;3.87;;;;;;;;;;5071833;28;20474;-77
2022/06/13 08:25:53;;;;;;;8.13;4.27;;;;;;;;;;5055267;28;20212;-76
2022/06/13 08:28:21;;;;;;;10.60;4.20;;;;;;;;;;5071910;28;20234;-77
2022/06/13 08:30:51;;;;;;;10.43;3.80;;;;;;;;;;5072220;28;20209;-75
2022/06/13 08:33:19;;;;;;;7.47;3.80;;;;;;;;;;5085407;28;20682;-76
2022/06/13 08:35:47;;;;;;;9.02;3.95;;;;;;;;;;5091215;28;20250;-75
2022/06/13 08:38:14;;;;;;;9.07;4.50;;;;;;;;;;5091740;28;20217;-75
2022/06/13 08:41:01;;;;;;;6.57;3.70;;;;;;;;;;5093329;28;20250;-77
2022/06/13 08:43:44;;;;;;;12.50;4.00;;;;;;;;;;5092091;28;20221;-76
2022/06/13 08:46:15;;;;;;;9.18;3.90;;;;;;;;;;5054808;28;20670;-76
2022/06/13 08:48:47;;;;;;;9.15;3.90;;;;;;;;;;5072420;28;20210;-76
2022/06/13 08:51:17;;;;;;;6.73;4.00;;;;;;;;;;5076529;28;20200;-76
2022/06/13 08:53:51;;;;;;;7.90;3.63;;;;;;;;;;5092434;28;20240;-77
2022/06/13 08:56:20;;;;;;;8.00;3.90;;;;;;;;;;5092981;28;20720;-77
2022/06/13 08:58:53;;;;;;;9.52;3.58;;;;;;;;;;5083285;28;20312;-75
2022/06/13 09:01:25;;;;;;;7.25;3.80;;;;;;;;;;5087745;28;20206;-76
2022/06/13 09:03:59;;;;;;;5.50;3.30;;;;;;;;;;5071760;28;20659;-75
2022/06/13 09:06:38;;;;;;;5.43;3.13;;;;;;;;;;5073577;28;20206;-76
2022/06/13 09:09:35;;;;;;;7.47;3.60;;;;;;;;;;5091881;28;20193;-75
2022/06/13 09:12:19;;;;;;;7.28;3.10;;;;;;;;;;5080749;28;20229;-75
2022/06/13 09:14:50;;;;;;;5.90;3.30;;;;;;;;;;5091564;28;20209;-73
2022/06/13 09:17:21;;;;;;;8.10;2.90;;;;;;;;;;5091900;28;20209;-74
2022/06/13 09:19:54;;;;;;;4.78;2.88;;;;;;;;;;5074880;28;20206;-76
2022/06/13 09:22:30;;;;;;;8.57;2.97;;;;;;;;;;5071667;28;20225;-77
2022/06/13 09:25:02;;;;;;;6.68;2.90;;;;;;;;;;5070979;28;20224;-77
2022/06/13 09:27:33;;;;;;;4.03;2.58;;;;;;;;;;5053652;28;20197;-78
2022/06/13 09:30:12;;;;;;;5.95;2.70;;;;;;;;;;5071098;28;20231;-76
2022/06/13 09:32:52;;;;;;;6.13;2.95;;;;;;;;;;5070227;28;20221;-77
2022/06/13 09:35:29;;;;;;;6.90;2.50;;;;;;;;;;5083987;28;20218;-75
2022/06/13 09:38:21;;;;;;;7.45;3.22;;;;;;;;;;5084733;28;20217;-76
2022/06/13 09:40:51;;;;;;;4.05;2.33;;;;;;;;;;5090251;28;20204;-75
2022/06/13 09:43:32;;;;;;;6.80;2.60;;;;;;;;;;5090448;28;20221;-75
2022/06/13 09:46:18;;;;;;;7.38;2.60;;;;;;;;;;5072800;28;20204;-76
2022/06/13 09:48:46;;;;;;;3.75;2.42;;;;;;;;;;5072837;28;20291;-76
2022/06/13 09:51:23;;;;;;;5.95;3.35;;;;;;;;;;5090646;28;20200;-76
2022/06/13 09:54:19;;;;;;;6.28;2.47;;;;;;;;;;5071619;28;20229;-73
2022/06/13 09:56:49;;;;;;;6.88;3.92;;;;;;;;;;5070099;28;20622;-74
2022/06/13 09:59:34;;;;;;;6.10;3.53;;;;;;;;;;5090590;28;20235;-75
2022/06/13 10:02:01;;;;;;;4.20;2.20;;;;;;;;;;5086860;28;20318;-74
2022/06/13 10:04:47;;;;;;;6.95;2.72;;;;;;;;;;5076306;28;20247;-77
2022/06/13 10:07:27;;;;;;;5.32;2.42;;;;;;;;;;5079641;28;20617;-76
2022/06/13 10:10:10;;;;;;;3.63;2.50;;;;;;;;;;5081031;28;20224;-76
2022/06/13 10:12:59;;;;;;;6.03;2.40;;;;;;;;;;5069963;28;20229;-76
2022/06/13 10:15:45;;;;;;;4.97;2.72;;;;;;;;;;5070207;28;20205;-77
2022/06/13 10:18:28;;;;;;;11.30;2.80;;;;;;;;;;5070550;28;20225;-76
2022/06/13 10:21:06;;;;;;;6.45;2.75;;;;;;;;;;5069957;28;20198;-76
2022/06/13 10:23:53;;;;;;;5.45;2.58;;;;;;;;;;5070414;28;20282;-76
2022/06/13 10:26:38;;;;;;;3.75;2.45;;;;;;;;;;5069505;28;20212;-75
2022/06/13 10:29:24;;;;;;;3.10;2.03;;;;;;;;;;5070894;28;20209;-76
2022/06/13 10:31:54;;;;;;;5.43;2.90;;;;;;;;;;5069511;28;20237;-75
2022/06/13 10:34:25;;;;;;;3.28;2.30;;;;;;;;;;5056799;28;20258;-77
2022/06/13 10:36:54;;;;;;;5.40;2.40;;;;;;;;;;5088818;28;20691;-75
2022/06/13 10:39:23;;;;;;;4.13;2.40;;;;;;;;;;5088969;28;20447;-75
2022/06/13 10:41:53;;;;;;;5.28;2.38;;;;;;;;;;5071440;28;20270;-75
2022/06/13 10:44:21;;;;;;;3.88;2.35;;;;;;;;;;5076102;28;20294;-75
2022/06/13 10:46:50;;;;;;;3.00;2.00;;;;;;;;;;5069239;28;20400;-78
2022/06/13 10:49:20;;;;;;;4.18;2.50;;;;;;;;;;5060069;28;20201;-75
2022/06/13 10:51:48;;;;;;;5.10;2.70;;;;;;;;;;5090106;28;20224;-77
2022/06/13 10:54:15;;;;;;;6.07;2.85;;;;;;;;;;5089862;28;20609;-76
2022/06/13 10:56:45;;;;;;;5.75;2.50;;;;;;;;;;5090029;28;20739;-77
2022/06/13 10:59:30;;;;;;;4.38;2.22;;;;;;;;;;5072358;28;20232;-76
2022/06/13 11:02:00;;;;;;;6.80;2.70;;;;;;;;;;5089067;28;20224;-77
2022/06/13 11:04:37;;;;;;;5.00;2.22;;;;;;;;;;5090027;28;20840;-74
2022/06/13 11:07:12;;;;;;;3.53;2.08;;;;;;;;;;5088723;28;20680;-75
2022/06/13 11:09:44;;;;;;;4.72;2.40;;;;;;;;;;5090232;28;20207;-77
2022/06/13 11:12:25;;;;;;;4.50;2.35;;;;;;;;;;5089089;28;20753;-75
2022/06/13 11:23:20;;;;;;;5.93;2.40;;;;;;;;;;5088974;28;20284;-76
2022/06/13 11:25:58;;;;;;;5.30;2.97;;;;;;;;;;5089554;28;20704;-73
2022/06/13 11:28:28;;;;;;;4.18;2.50;;;;;;;;;;5088649;28;20486;-74
2022/06/13 11:31:15;;;;;;;4.97;2.70;;;;;;;;;;5089543;28;20672;-76
2022/06/13 11:33:42;;;;;;;5.75;3.55;;;;;;;;;;5088607;28;20225;-76
2022/06/13 11:36:16;;;;;;;3.17;2.47;;;;;;;;;;5070404;28;20269;-74
2022/06/13 11:39:03;;;;;;;5.38;2.53;;;;;;;;;;5069972;28;20334;-77
2022/06/13 11:41:34;;;;;;;7.32;2.60;;;;;;;;;;5088941;28;20204;-74
2022/06/13 11:44:04;;;;;;;3.55;2.33;;;;;;;;;;5088969;28;20200;-75
2022/06/13 11:46:31;;;;;;;4.38;2.10;;;;;;;;;;5088985;28;20201;-75
2022/06/13 11:49:04;;;;;;;5.10;2.03;;;;;;;;;;5088990;28;20212;-76
2022/06/13 11:51:41;;;;;;;5.15;2.13;;;;;;;;;;5084438;28;20310;-77
2022/06/13 11:54:19;;;;;;;2.55;1.67;;;;;;;;;;5070376;28;20870;-77
2022/06/13 11:56:47;;;;;;;4.00;2.10;;;;;;;;;;5052958;28;20205;-75
2022/06/13 11:59:16;;;;;;;5.20;2.90;;;;;;;;;;5070605;28;20236;-77
2022/06/13 12:01:44;;;;;;;4.03;2.28;;;;;;;;;;5071995;28;20681;-76
2022/06/13 12:04:14;;;;;;;3.63;2.03;;;;;;;;;;5069652;28;20678;-73
2022/06/13 12:06:47;;;;;;;2.53;2.33;;;;;;;;;;5072427;28;20212;-74
2022/06/13 12:09:21;;;;;;;4.13;2.30;;;;;;;;;;5086088;28;20204;-77
2022/06/13 12:11:53;;;;;;;4.18;2.13;;;;;;;;;;5072647;28;20275;-75
2022/06/13 12:14:21;;;;;;;3.45;2.30;;;;;;;;;;5089666;28;20204;-77
2022/06/13 12:16:54;;;;;;;4.53;1.70;;;;;;;;;;5090465;28;20590;-76
2022/06/13 12:19:32;;;;;;;2.80;1.75;;;;;;;;;;5089485;28;20252;-76
2022/06/13 12:22:02;;;;;;;5.43;2.30;;;;;;;;;;5089551;28;20224;-77
2022/06/13 12:24:39;;;;;;;3.80;1.77;;;;;;;;;;5087148;28;20387;-78
2022/06/13 12:27:21;;;;;;;2.35;1.85;;;;;;;;;;5068510;28;20215;-76
2022/06/13 12:30:01;;;;;;;38.83;26.15;;;;;;;;;;5067247;28;20720;-74
2022/06/13 12:32:28;;;;;;;3.20;1.90;;;;;;;;;;5067629;28;20259;-77
2022/06/13 12:34:56;;;;;;;2.60;1.50;;;;;;;;;;5077701;28;20205;-77
2022/06/13 12:37:37;;;;;;;3.97;1.50;;;;;;;;;;5086952;28;20211;-79
2022/06/13 12:40:18;;;;;;;2.53;1.40;;;;;;;;;;5079338;28;20624;-78
2022/06/13 12:42:52;;;;;;;4.32;2.17;;;;;;;;;;5068679;28;20235;-77
2022/06/13 12:45:28;;;;;;;3.72;2.08;;;;;;;;;;5087776;28;20623;-77
2022/06/13 12:48:15;;;;;;;4.05;2.22;;;;;;;;;;5087412;28;20207;-75
2022/06/13 12:50:48;;;;;;;4.10;1.90;;;;;;;;;;5087273;28;20287;-77
2022/06/13 12:53:21;;;;;;;2.22;1.73;;;;;;;;;;5086706;28;20698;-79
2022/06/13 12:56:12;;;;;;;3.45;1.70;;;;;;;;;;5086969;28;20284;-77
2022/06/13 12:58:48;;;;;;;3.05;1.70;;;;;;;;;;5074555;28;20224;-78
2022/06/13 13:01:15;;;;;;;3.28;1.42;;;;;;;;;;5083149;28;20222;-77
2022/06/13 13:03:43;;;;;;;6.65;2.72;;;;;;;;;;5088811;28;20217;-77
2022/06/13 13:06:30;;;;;;;6.28;2.90;;;;;;;;;;5072214;28;20254;-77
2022/06/13 13:09:07;;;;;;;6.13;2.70;;;;;;;;;;5073876;28;20197;-77
2022/06/13 13:12:02;;;;;;;3.08;1.38;;;;;;;;;;5075793;28;20204;-76
2022/06/13 13:14:48;;;;;;;2.25;1.55;;;;;;;;;;5075357;28;20204;-77
2022/06/13 13:17:31;;;;;;;2.58;1.60;;;;;;;;;;5075537;28;20216;-77
2022/06/13 13:20:06;;;;;;;3.13;1.48;;;;;;;;;;5075241;28;20228;-76
2022/06/13 13:23:00;;;;;;;3.35;1.60;;;;;;;;;;5075338;28;20220;-76
2022/06/13 13:26:05;;;;;;;2.88;1.70;;;;;;;;;;5064106;28;20216;-77
2022/06/13 13:28:45;;;;;;;3.35;1.70;;;;;;;;;;5091422;28;20201;-78
2022/06/13 13:31:21;;;;;;;3.85;1.92;;;;;;;;;;5090855;28;20204;-76
2022/06/13 13:33:51;;;;;;;5.13;1.75;;;;;;;;;;5085921;28;20224;-76
2022/06/13 13:36:19;;;;;;;2.88;1.77;;;;;;;;;;5072494;28;20212;-77
2022/06/13 13:38:49;;;;;;;2.53;1.42;;;;;;;;;;5090397;28;20235;-79
2022/06/13 13:41:20;;;;;;;2.28;1.55;;;;;;;;;;5090492;28;20212;-76
2022/06/13 13:43:52;;;;;;;1.92;1.38;;;;;;;;;;5088142;28;20569;-77
2022/06/13 13:46:22;;;;;;;3.95;1.88;;;;;;;;;;5090639;28;20693;-78
2022/06/13 13:49:00;;;;;;;2.35;1.52;;;;;;;;;;5090384;28;20212;-76
2022/06/13 13:51:32;;;;;;;3.83;1.55;;;;;;;;;;5076023;28;20219;-77
2022/06/13 13:54:02;;;;;;;3.78;1.80;;;;;;;;;;5069588;28;20381;-77
2022/06/13 13:56:36;;;;;;;4.25;2.28;;;;;;;;;;5070021;28;20231;-78
2022/06/13 13:59:05;;;;;;;7.25;3.35;;;;;;;;;;5069677;28;20226;-77
2022/06/13 14:01:37;;;;;;;2.30;1.45;;;;;;;;;;5051714;28;20204;-78
2022/06/13 14:04:04;;;;;;;3.85;1.60;;;;;;;;;;5069238;28;20725;-76
2022/06/13 14:06:40;;;;;;;3.17;1.77;;;;;;;;;;5072399;28;20237;-78
2022/06/13 14:09:09;;;;;;;1.63;1.52;;;;;;;;;;5084890;28;20208;-77
2022/06/13 14:12:00;;;;;;;6.53;1.70;;;;;;;;;;5071677;28;20851;-76
2022/06/13 14:14:29;;;;;;;5.72;2.15;;;;;;;;;;5079592;28;20300;-77
2022/06/13 14:16:57;;;;;;;3.47;1.80;;;;;;;;;;5071952;28;20201;-78
2022/06/13 14:19:26;;;;;;;2.25;1.40;;;;;;;;;;5071438;28;20221;-75
2022/06/13 14:21:59;;;;;;;4.38;1.90;;;;;;;;;;5089856;28;20266;-77
2022/06/13 14:24:28;;;;;;;5.03;1.75;;;;;;;;;;5083815;28;20271;-78
2022/06/13 14:26:59;;;;;;;3.30;1.73;;;;;;;;;;5069197;28;20587;-75
2022/06/13 14:29:29;;;;;;;2.85;1.50;;;;;;;;;;5069770;28;20675;-75
2022/06/13 14:31:58;;;;;;;3.17;1.30;;;;;;;;;;5069761;28;20328;-77
2022/06/13 14:37:29;;;;;;;3.90;1.48;;;;;;;;;;5089168;28;20223;-76
2022/06/13 14:39:59;;;;;;;2.10;1.50;;;;;;;;;;5089507;28;20634;-77
2022/06/13 14:42:37;;;;;;;6.30;2.10;;;;;;;;;;5075127;28;20386;-76
2022/06/13 14:45:08;;;;;;;3.67;1.48;;;;;;;;;;5051313;28;20659;-74
2022/06/13 14:47:41;;;;;;;3.80;1.65;;;;;;;;;;5069035;28;20261;-77
2022/06/13 14:50:09;;;;;;;3.50;1.80;;;;;;;;;;5069638;28;20216;-77
2022/06/13 14:52:36;;;;;;;3.15;1.70;;;;;;;;;;5069479;28;20230;-78
2022/06/13 14:55:04;;;;;;;2.40;1.40;;;;;;;;;;5069108;28;20209;-78
2022/06/13 14:57:33;;;;;;;2.35;1.60;;;;;;;;;;5069007;28;20693;-78
2022/06/13 15:00:07;;;;;;;2.60;1.80;;;;;;;;;;5068777;28;20229;-78
2022/06/13 15:02:54;;;;;;;4.45;2.88;;;;;;;;;;5088725;28;20270;-76
2022/06/13 15:05:31;;;;;;;5.15;2.67;;;;;;;;;;5071401;28;20658;-78
2022/06/13 15:07:58;;;;;;;6.22;2.15;;;;;;;;;;5088403;28;20200;-76
2022/06/13 15:10:29;;;;;;;20.08;9.48;;;;;;;;;;5088884;28;20593;-76
2022/06/13 15:12:58;;;;;;;4.07;1.88;;;;;;;;;;5088400;28;20521;-75
2022/06/13 15:15:28;;;;;;;2.72;1.88;;;;;;;;;;5084966;28;20260;-76
2022/06/13 15:17:56;;;;;;;2.10;1.60;;;;;;;;;;5068856;28;20676;-76
2022/06/13 15:20:27;;;;;;;4.45;1.48;;;;;;;;;;5068989;28;20233;-77
2022/06/13 15:22:58;;;;;;;3.25;1.58;;;;;;;;;;5068416;28;20225;-76
2022/06/13 15:25:36;;;;;;;2.55;1.60;;;;;;;;;;5051835;28;20651;-77
2022/06/13 15:28:03;;;;;;;3.08;1.80;;;;;;;;;;5068886;28;20212;-76
2022/06/13 15:30:38;;;;;;;3.08;1.70;;;;;;;;;;5067693;28;20210;-76
2022/06/13 15:33:11;;;;;;;4.05;1.73;;;;;;;;;;5071441;28;20228;-75
2022/06/13 15:35:45;;;;;;;3.95;2.05;;;;;;;;;;5068463;28;20619;-76